sensor_id;sensor_type;location;lat;lon;timestamp;P1;durP1;ratioP1;P2;durP2;ratioP2
74269;SDS011;62754;48.252;11.654;2023-07-20T00:01:09;5.20;;;2.60;;
74269;SDS011;62754;48.252;11.654;2023-07-20T00:03:34;6.63;;;2.70;;
74269;SDS011;62754;48.252;11.654;2023-07-20T00:06:02;5.78;;;2.67;;
74269;SDS011;62754;48.252;11.654;2023-07-20T00:08:28;6.30;;;2.33;;
74269;SDS011;62754;48.252;11.654;2023-07-20T00:10:56;4.70;;;2.20;;
74269;SDS011;62754;48.252;11.654;2023-07-20T00:13:26;5.55;;;2.55;;
74269;SDS011;62754;48.252;11.654;2023-07-20T00:15:52;4.00;;;2.17;;
74269;SDS011;62754;48.252;11.654;2023-07-20T00:18:21;5.63;;;2.20;;
74269;SDS011;62754;48.252;11.654;2023-07-20T00:20:48;4.60;;;2.10;;
74269;SDS011;62754;48.252;11.654;2023-07-20T00:23:14;5.47;;;2.55;;
74269;SDS011;62754;48.252;11.654;2023-07-20T00:25:40;5.43;;;2.30;;
74269;SDS011;62754;48.252;11.654;2023-07-20T00:28:06;4.53;;;2.28;;
74269;SDS011;62754;48.252;11.654;2023-07-20T00:30:31;8.45;;;2.60;;
74269;SDS011;62754;48.252;11.654;2023-07-20T00:32:59;4.47;;;2.28;;
74269;SDS011;62754;48.252;11.654;2023-07-20T00:35:25;5.85;;;2.30;;
74269;SDS011;62754;48.252;11.654;2023-07-20T00:37:51;4.65;;;2.20;;
74269;SDS011;62754;48.252;11.654;2023-07-20T00:40:19;4.22;;;2.08;;
74269;SDS011;62754;48.252;11.654;2023-07-20T00:42:45;6.60;;;2.67;;
74269;SDS011;62754;48.252;11.654;2023-07-20T00:45:11;5.68;;;1.85;;
74269;SDS011;62754;48.252;11.654;2023-07-20T00:47:36;7.93;;;3.03;;
74269;SDS011;62754;48.252;11.654;2023-07-20T00:50:05;5.30;;;2.35;;
74269;SDS011;62754;48.252;11.654;2023-07-20T00:52:34;4.57;;;2.05;;
74269;SDS011;62754;48.252;11.654;2023-07-20T00:55:06;6.20;;;2.38;;
74269;SDS011;62754;48.252;11.654;2023-07-20T00:57:35;5.15;;;2.38;;
74269;SDS011;62754;48.252;11.654;2023-07-20T01:00:02;4.57;;;2.22;;
74269;SDS011;62754;48.252;11.654;2023-07-20T01:02:33;4.40;;;2.00;;
74269;SDS011;62754;48.252;11.654;2023-07-20T01:04:59;3.65;;;1.75;;
74269;SDS011;62754;48.252;11.654;2023-07-20T01:07:46;5.80;;;1.70;;
74269;SDS011;62754;48.252;11.654;2023-07-20T01:10:54;6.28;;;2.20;;
74269;SDS011;62754;48.252;11.654;2023-07-20T01:13:24;3.88;;;1.80;;
74269;SDS011;62754;48.252;11.654;2023-07-20T01:15:57;4.03;;;2.20;;
74269;SDS011;62754;48.252;11.654;2023-07-20T01:18:26;6.47;;;2.13;;
74269;SDS011;62754;48.252;11.654;2023-07-20T01:20:52;5.18;;;1.85;;
74269;SDS011;62754;48.252;11.654;2023-07-20T01:31:47;6.43;;;1.88;;
74269;SDS011;62754;48.252;11.654;2023-07-20T01:34:18;4.03;;;1.67;;
74269;SDS011;62754;48.252;11.654;2023-07-20T01:36:47;3.65;;;1.77;;
74269;SDS011;62754;48.252;11.654;2023-07-20T01:39:15;5.05;;;2.30;;
74269;SDS011;62754;48.252;11.654;2023-07-20T01:41:44;3.38;;;1.95;;
74269;SDS011;62754;48.252;11.654;2023-07-20T01:44:15;7.53;;;2.40;;
74269;SDS011;62754;48.252;11.654;2023-07-20T01:46:43;4.15;;;1.80;;
74269;SDS011;62754;48.252;11.654;2023-07-20T01:49:13;5.28;;;2.33;;
74269;SDS011;62754;48.252;11.654;2023-07-20T01:51:39;4.75;;;2.05;;
74269;SDS011;62754;48.252;11.654;2023-07-20T01:54:07;5.93;;;2.10;;
74269;SDS011;62754;48.252;11.654;2023-07-20T01:56:35;4.78;;;1.67;;
74269;SDS011;62754;48.252;11.654;2023-07-20T01:59:01;6.18;;;2.20;;
74269;SDS011;62754;48.252;11.654;2023-07-20T02:01:30;4.90;;;2.00;;
74269;SDS011;62754;48.252;11.654;2023-07-20T02:03:58;4.35;;;1.65;;
74269;SDS011;62754;48.252;11.654;2023-07-20T02:08:55;5.63;;;1.60;;
74269;SDS011;62754;48.252;11.654;2023-07-20T02:11:24;4.40;;;1.50;;
74269;SDS011;62754;48.252;11.654;2023-07-20T02:13:49;7.65;;;1.95;;
74269;SDS011;62754;48.252;11.654;2023-07-20T02:16:15;5.25;;;2.67;;
74269;SDS011;62754;48.252;11.654;2023-07-20T02:18:41;4.13;;;1.95;;
74269;SDS011;62754;48.252;11.654;2023-07-20T02:21:09;6.88;;;1.85;;
74269;SDS011;62754;48.252;11.654;2023-07-20T02:23:37;5.45;;;1.77;;
74269;SDS011;62754;48.252;11.654;2023-07-20T02:26:05;3.85;;;1.60;;
74269;SDS011;62754;48.252;11.654;2023-07-20T02:28:31;5.25;;;2.10;;
74269;SDS011;62754;48.252;11.654;2023-07-20T02:30:56;4.45;;;1.60;;
74269;SDS011;62754;48.252;11.654;2023-07-20T02:33:24;3.95;;;1.50;;
74269;SDS011;62754;48.252;11.654;2023-07-20T02:35:52;3.15;;;1.48;;
74269;SDS011;62754;48.252;11.654;2023-07-20T02:38:18;4.55;;;1.63;;
74269;SDS011;62754;48.252;11.654;2023-07-20T02:40:49;4.03;;;1.52;;
74269;SDS011;62754;48.252;11.654;2023-07-20T02:43:14;4.40;;;1.73;;
74269;SDS011;62754;48.252;11.654;2023-07-20T02:45:40;4.50;;;1.80;;
74269;SDS011;62754;48.252;11.654;2023-07-20T02:48:11;4.15;;;1.77;;
74269;SDS011;62754;48.252;11.654;2023-07-20T02:50:37;4.07;;;1.65;;
74269;SDS011;62754;48.252;11.654;2023-07-20T02:53:07;2.70;;;1.23;;
74269;SDS011;62754;48.252;11.654;2023-07-20T02:55:35;4.65;;;1.40;;
74269;SDS011;62754;48.252;11.654;2023-07-20T02:58:01;5.45;;;1.75;;
74269;SDS011;62754;48.252;11.654;2023-07-20T03:00:27;5.88;;;1.75;;
74269;SDS011;62754;48.252;11.654;2023-07-20T03:02:58;2.95;;;1.33;;
74269;SDS011;62754;48.252;11.654;2023-07-20T03:05:26;4.88;;;1.55;;
74269;SDS011;62754;48.252;11.654;2023-07-20T03:07:52;4.30;;;1.73;;
74269;SDS011;62754;48.252;11.654;2023-07-20T03:10:17;4.82;;;1.52;;
74269;SDS011;62754;48.252;11.654;2023-07-20T03:12:43;4.25;;;1.33;;
74269;SDS011;62754;48.252;11.654;2023-07-20T03:15:09;3.95;;;1.30;;
74269;SDS011;62754;48.252;11.654;2023-07-20T03:17:37;3.85;;;1.40;;
74269;SDS011;62754;48.252;11.654;2023-07-20T03:20:06;3.67;;;1.38;;
74269;SDS011;62754;48.252;11.654;2023-07-20T03:22:32;2.70;;;1.15;;
74269;SDS011;62754;48.252;11.654;2023-07-20T03:24:58;4.03;;;1.27;;
74269;SDS011;62754;48.252;11.654;2023-07-20T03:27:23;2.70;;;1.08;;
74269;SDS011;62754;48.252;11.654;2023-07-20T03:29:51;2.83;;;1.17;;
74269;SDS011;62754;48.252;11.654;2023-07-20T03:32:17;3.83;;;1.25;;
74269;SDS011;62754;48.252;11.654;2023-07-20T03:34:43;5.65;;;1.65;;
74269;SDS011;62754;48.252;11.654;2023-07-20T03:37:12;4.38;;;1.17;;
74269;SDS011;62754;48.252;11.654;2023-07-20T03:39:40;2.67;;;0.80;;
74269;SDS011;62754;48.252;11.654;2023-07-20T03:42:09;3.38;;;1.33;;
74269;SDS011;62754;48.252;11.654;2023-07-20T03:44:34;5.65;;;1.08;;
74269;SDS011;62754;48.252;11.654;2023-07-20T03:47:00;4.68;;;1.20;;
74269;SDS011;62754;48.252;11.654;2023-07-20T03:49:26;2.38;;;0.98;;
74269;SDS011;62754;48.252;11.654;2023-07-20T03:51:52;4.32;;;1.30;;
74269;SDS011;62754;48.252;11.654;2023-07-20T03:54:17;4.95;;;1.20;;
74269;SDS011;62754;48.252;11.654;2023-07-20T03:56:43;2.65;;;0.98;;
74269;SDS011;62754;48.252;11.654;2023-07-20T03:59:09;2.38;;;0.98;;
74269;SDS011;62754;48.252;11.654;2023-07-20T04:01:34;3.10;;;1.20;;
74269;SDS011;62754;48.252;11.654;2023-07-20T04:04:07;4.10;;;1.20;;
74269;SDS011;62754;48.252;11.654;2023-07-20T04:06:33;5.03;;;1.10;;
74269;SDS011;62754;48.252;11.654;2023-07-20T04:08:59;5.45;;;1.20;;
74269;SDS011;62754;48.252;11.654;2023-07-20T04:11:25;3.25;;;1.17;;
74269;SDS011;62754;48.252;11.654;2023-07-20T04:13:55;3.58;;;1.40;;
74269;SDS011;62754;48.252;11.654;2023-07-20T04:16:21;4.40;;;1.30;;
74269;SDS011;62754;48.252;11.654;2023-07-20T04:18:46;3.97;;;1.50;;
74269;SDS011;62754;48.252;11.654;2023-07-20T04:21:12;3.47;;;1.35;;
74269;SDS011;62754;48.252;11.654;2023-07-20T04:23:40;5.55;;;1.48;;
74269;SDS011;62754;48.252;11.654;2023-07-20T04:26:06;6.25;;;1.20;;
74269;SDS011;62754;48.252;11.654;2023-07-20T04:28:31;3.63;;;1.30;;
74269;SDS011;62754;48.252;11.654;2023-07-20T04:31:09;3.78;;;1.20;;
74269;SDS011;62754;48.252;11.654;2023-07-20T04:33:39;4.57;;;1.40;;
74269;SDS011;62754;48.252;11.654;2023-07-20T04:36:05;2.50;;;1.10;;
74269;SDS011;62754;48.252;11.654;2023-07-20T04:38:35;3.17;;;1.00;;
74269;SDS011;62754;48.252;11.654;2023-07-20T04:41:01;4.00;;;1.10;;
74269;SDS011;62754;48.252;11.654;2023-07-20T04:43:29;4.47;;;1.33;;
74269;SDS011;62754;48.252;11.654;2023-07-20T04:45:57;4.00;;;1.20;;
74269;SDS011;62754;48.252;11.654;2023-07-20T04:48:25;4.80;;;1.40;;
74269;SDS011;62754;48.252;11.654;2023-07-20T04:50:51;2.35;;;1.00;;
74269;SDS011;62754;48.252;11.654;2023-07-20T04:53:16;2.85;;;1.30;;
74269;SDS011;62754;48.252;11.654;2023-07-20T04:55:47;3.15;;;1.50;;
74269;SDS011;62754;48.252;11.654;2023-07-20T04:58:14;6.18;;;1.40;;
74269;SDS011;62754;48.252;11.654;2023-07-20T05:00:39;3.67;;;1.23;;
74269;SDS011;62754;48.252;11.654;2023-07-20T05:03:05;2.85;;;1.10;;
74269;SDS011;62754;48.252;11.654;2023-07-20T05:05:31;3.47;;;1.20;;
74269;SDS011;62754;48.252;11.654;2023-07-20T05:07:57;3.08;;;1.10;;
74269;SDS011;62754;48.252;11.654;2023-07-20T05:10:23;2.85;;;1.10;;
74269;SDS011;62754;48.252;11.654;2023-07-20T05:12:49;2.47;;;1.35;;
74269;SDS011;62754;48.252;11.654;2023-07-20T05:15:17;4.38;;;1.25;;
74269;SDS011;62754;48.252;11.654;2023-07-20T05:17:43;3.83;;;1.38;;
74269;SDS011;62754;48.252;11.654;2023-07-20T05:20:09;6.03;;;1.20;;
74269;SDS011;62754;48.252;11.654;2023-07-20T05:22:36;5.00;;;1.33;;
74269;SDS011;62754;48.252;11.654;2023-07-20T05:25:07;5.07;;;1.35;;
74269;SDS011;62754;48.252;11.654;2023-07-20T05:27:36;3.70;;;1.33;;
74269;SDS011;62754;48.252;11.654;2023-07-20T05:30:03;4.90;;;1.30;;
74269;SDS011;62754;48.252;11.654;2023-07-20T05:32:29;4.97;;;1.52;;
74269;SDS011;62754;48.252;11.654;2023-07-20T05:34:57;2.80;;;1.27;;
74269;SDS011;62754;48.252;11.654;2023-07-20T05:37:25;4.03;;;1.48;;
74269;SDS011;62754;48.252;11.654;2023-07-20T05:39:54;5.53;;;1.40;;
74269;SDS011;62754;48.252;11.654;2023-07-20T05:42:22;3.63;;;1.33;;
74269;SDS011;62754;48.252;11.654;2023-07-20T05:44:48;4.95;;;1.58;;
74269;SDS011;62754;48.252;11.654;2023-07-20T05:47:13;4.85;;;1.50;;
74269;SDS011;62754;48.252;11.654;2023-07-20T05:49:39;5.15;;;1.20;;
74269;SDS011;62754;48.252;11.654;2023-07-20T05:52:08;7.22;;;1.48;;
74269;SDS011;62754;48.252;11.654;2023-07-20T05:54:36;4.50;;;1.75;;
74269;SDS011;62754;48.252;11.654;2023-07-20T05:57:02;2.63;;;1.33;;
74269;SDS011;62754;48.252;11.654;2023-07-20T05:59:30;3.25;;;1.42;;
74269;SDS011;62754;48.252;11.654;2023-07-20T06:01:56;2.80;;;1.15;;
74269;SDS011;62754;48.252;11.654;2023-07-20T06:04:26;3.63;;;1.40;;
74269;SDS011;62754;48.252;11.654;2023-07-20T06:06:52;3.47;;;1.48;;
74269;SDS011;62754;48.252;11.654;2023-07-20T06:09:17;3.05;;;1.48;;
74269;SDS011;62754;48.252;11.654;2023-07-20T06:11:43;4.35;;;1.45;;
74269;SDS011;62754;48.252;11.654;2023-07-20T06:14:13;3.83;;;1.25;;
74269;SDS011;62754;48.252;11.654;2023-07-20T06:16:42;4.72;;;1.65;;
74269;SDS011;62754;48.252;11.654;2023-07-20T06:19:07;4.05;;;1.30;;
74269;SDS011;62754;48.252;11.654;2023-07-20T06:21:35;3.53;;;1.30;;
74269;SDS011;62754;48.252;11.654;2023-07-20T06:24:03;5.68;;;1.50;;
74269;SDS011;62754;48.252;11.654;2023-07-20T06:26:29;3.88;;;1.20;;
74269;SDS011;62754;48.252;11.654;2023-07-20T06:28:55;3.90;;;1.38;;
74269;SDS011;62754;48.252;11.654;2023-07-20T06:31:24;5.03;;;1.40;;
74269;SDS011;62754;48.252;11.654;2023-07-20T06:33:52;5.15;;;1.35;;
74269;SDS011;62754;48.252;11.654;2023-07-20T06:36:20;2.38;;;1.40;;
74269;SDS011;62754;48.252;11.654;2023-07-20T06:38:45;4.28;;;1.60;;
74269;SDS011;62754;48.252;11.654;2023-07-20T06:41:14;4.28;;;1.63;;
74269;SDS011;62754;48.252;11.654;2023-07-20T06:43:39;3.58;;;1.42;;
74269;SDS011;62754;48.252;11.654;2023-07-20T06:46:05;3.38;;;1.38;;
74269;SDS011;62754;48.252;11.654;2023-07-20T06:48:31;5.38;;;1.48;;
74269;SDS011;62754;48.252;11.654;2023-07-20T06:50:57;4.32;;;1.63;;
74269;SDS011;62754;48.252;11.654;2023-07-20T06:53:25;3.83;;;1.50;;
74269;SDS011;62754;48.252;11.654;2023-07-20T06:55:56;3.25;;;1.40;;
74269;SDS011;62754;48.252;11.654;2023-07-20T06:58:24;4.30;;;1.35;;
74269;SDS011;62754;48.252;11.654;2023-07-20T07:00:50;3.90;;;1.30;;
74269;SDS011;62754;48.252;11.654;2023-07-20T07:03:16;3.30;;;1.50;;
74269;SDS011;62754;48.252;11.654;2023-07-20T07:05:44;4.13;;;1.55;;
74269;SDS011;62754;48.252;11.654;2023-07-20T07:08:12;3.08;;;1.40;;
74269;SDS011;62754;48.252;11.654;2023-07-20T07:10:40;4.25;;;1.40;;
74269;SDS011;62754;48.252;11.654;2023-07-20T07:13:11;5.63;;;1.60;;
74269;SDS011;62754;48.252;11.654;2023-07-20T07:15:39;3.85;;;1.30;;
74269;SDS011;62754;48.252;11.654;2023-07-20T07:18:04;3.75;;;1.15;;
74269;SDS011;62754;48.252;11.654;2023-07-20T07:20:30;3.22;;;1.25;;
74269;SDS011;62754;48.252;11.654;2023-07-20T07:22:56;3.67;;;1.40;;
74269;SDS011;62754;48.252;11.654;2023-07-20T07:25:24;4.18;;;1.75;;
74269;SDS011;62754;48.252;11.654;2023-07-20T07:27:52;2.10;;;1.08;;
74269;SDS011;62754;48.252;11.654;2023-07-20T07:30:19;5.65;;;1.55;;
74269;SDS011;62754;48.252;11.654;2023-07-20T07:32:45;3.50;;;1.27;;
74269;SDS011;62754;48.252;11.654;2023-07-20T07:35:13;4.97;;;1.40;;
74269;SDS011;62754;48.252;11.654;2023-07-20T07:37:39;4.63;;;1.45;;
74269;SDS011;62754;48.252;11.654;2023-07-20T07:40:09;3.65;;;1.30;;
74269;SDS011;62754;48.252;11.654;2023-07-20T07:42:35;3.13;;;1.23;;
74269;SDS011;62754;48.252;11.654;2023-07-20T07:45:03;3.42;;;1.20;;
74269;SDS011;62754;48.252;11.654;2023-07-20T07:47:31;4.18;;;1.65;;
74269;SDS011;62754;48.252;11.654;2023-07-20T07:50:02;5.78;;;1.45;;
74269;SDS011;62754;48.252;11.654;2023-07-20T07:52:30;3.08;;;1.30;;
74269;SDS011;62754;48.252;11.654;2023-07-20T07:55:01;4.97;;;1.50;;
74269;SDS011;62754;48.252;11.654;2023-07-20T07:57:27;2.67;;;1.23;;
74269;SDS011;62754;48.252;11.654;2023-07-20T07:59:52;3.58;;;1.40;;
74269;SDS011;62754;48.252;11.654;2023-07-20T08:02:20;3.83;;;1.20;;
74269;SDS011;62754;48.252;11.654;2023-07-20T08:04:48;3.53;;;1.42;;
74269;SDS011;62754;48.252;11.654;2023-07-20T08:07:14;6.72;;;1.38;;
74269;SDS011;62754;48.252;11.654;2023-07-20T08:09:42;2.80;;;0.93;;
74269;SDS011;62754;48.252;11.654;2023-07-20T08:12:11;2.60;;;1.08;;
74269;SDS011;62754;48.252;11.654;2023-07-20T08:14:39;4.32;;;1.10;;
74269;SDS011;62754;48.252;11.654;2023-07-20T08:17:04;3.67;;;1.42;;
74269;SDS011;62754;48.252;11.654;2023-07-20T08:19:30;2.22;;;1.15;;
74269;SDS011;62754;48.252;11.654;2023-07-20T08:21:56;7.00;;;1.40;;
74269;SDS011;62754;48.252;11.654;2023-07-20T08:24:24;4.28;;;1.20;;
74269;SDS011;62754;48.252;11.654;2023-07-20T08:26:50;3.80;;;1.30;;
74269;SDS011;62754;48.252;11.654;2023-07-20T08:29:20;3.70;;;1.35;;
74269;SDS011;62754;48.252;11.654;2023-07-20T08:31:46;4.10;;;1.30;;
74269;SDS011;62754;48.252;11.654;2023-07-20T08:34:14;2.88;;;1.23;;
74269;SDS011;62754;48.252;11.654;2023-07-20T08:36:40;3.70;;;1.23;;
74269;SDS011;62754;48.252;11.654;2023-07-20T08:39:06;3.63;;;1.05;;
74269;SDS011;62754;48.252;11.654;2023-07-20T08:41:31;3.72;;;1.20;;
74269;SDS011;62754;48.252;11.654;2023-07-20T08:43:58;3.03;;;1.27;;
74269;SDS011;62754;48.252;11.654;2023-07-20T08:46:24;4.72;;;1.25;;
74269;SDS011;62754;48.252;11.654;2023-07-20T08:48:52;2.67;;;1.27;;
74269;SDS011;62754;48.252;11.654;2023-07-20T08:51:20;3.38;;;1.40;;
74269;SDS011;62754;48.252;11.654;2023-07-20T08:53:51;3.63;;;1.38;;
74269;SDS011;62754;48.252;11.654;2023-07-20T08:56:17;3.55;;;1.45;;
74269;SDS011;62754;48.252;11.654;2023-07-20T08:58:48;4.07;;;1.52;;
74269;SDS011;62754;48.252;11.654;2023-07-20T09:01:13;2.92;;;1.20;;
74269;SDS011;62754;48.252;11.654;2023-07-20T09:03:42;3.72;;;1.40;;
74269;SDS011;62754;48.252;11.654;2023-07-20T09:06:13;6.57;;;2.38;;
74269;SDS011;62754;48.252;11.654;2023-07-20T09:08:41;3.58;;;1.48;;
74269;SDS011;62754;48.252;11.654;2023-07-20T09:11:07;3.30;;;1.15;;
74269;SDS011;62754;48.252;11.654;2023-07-20T09:13:37;4.97;;;1.30;;
74269;SDS011;62754;48.252;11.654;2023-07-20T09:16:05;2.28;;;1.05;;
74269;SDS011;62754;48.252;11.654;2023-07-20T09:18:33;3.17;;;1.30;;
74269;SDS011;62754;48.252;11.654;2023-07-20T09:21:02;2.60;;;1.25;;
74269;SDS011;62754;48.252;11.654;2023-07-20T09:26:12;4.65;;;1.42;;
74269;SDS011;62754;48.252;11.654;2023-07-20T09:28:48;3.67;;;1.40;;
74269;SDS011;62754;48.252;11.654;2023-07-20T09:31:20;2.72;;;1.23;;
74269;SDS011;62754;48.252;11.654;2023-07-20T09:33:47;5.35;;;1.38;;
74269;SDS011;62754;48.252;11.654;2023-07-20T09:36:14;4.97;;;1.10;;
74269;SDS011;62754;48.252;11.654;2023-07-20T09:38:44;2.75;;;1.30;;
74269;SDS011;62754;48.252;11.654;2023-07-20T09:41:16;3.70;;;1.13;;
74269;SDS011;62754;48.252;11.654;2023-07-20T09:43:45;17.85;;;2.83;;
74269;SDS011;62754;48.252;11.654;2023-07-20T09:46:13;4.60;;;1.42;;
74269;SDS011;62754;48.252;11.654;2023-07-20T09:48:42;3.38;;;1.20;;
74269;SDS011;62754;48.252;11.654;2023-07-20T09:51:17;2.88;;;1.10;;
74269;SDS011;62754;48.252;11.654;2023-07-20T09:53:48;6.40;;;1.30;;
74269;SDS011;62754;48.252;11.654;2023-07-20T09:56:18;4.05;;;1.25;;
74269;SDS011;62754;48.252;11.654;2023-07-20T09:58:47;3.67;;;1.40;;
74269;SDS011;62754;48.252;11.654;2023-07-20T10:01:14;2.97;;;1.35;;
74269;SDS011;62754;48.252;11.654;2023-07-20T10:03:48;2.53;;;1.20;;
74269;SDS011;62754;48.252;11.654;2023-07-20T10:06:18;3.15;;;1.10;;
74269;SDS011;62754;48.252;11.654;2023-07-20T10:08:51;4.10;;;1.55;;
74269;SDS011;62754;48.252;11.654;2023-07-20T10:11:18;3.10;;;1.48;;
74269;SDS011;62754;48.252;11.654;2023-07-20T10:13:47;2.97;;;1.23;;
74269;SDS011;62754;48.252;11.654;2023-07-20T10:16:21;5.55;;;1.63;;
74269;SDS011;62754;48.252;11.654;2023-07-20T10:18:54;4.32;;;1.40;;
74269;SDS011;62754;48.252;11.654;2023-07-20T10:21:29;3.58;;;1.50;;
74269;SDS011;62754;48.252;11.654;2023-07-20T10:26:21;3.67;;;1.30;;
74269;SDS011;62754;48.252;11.654;2023-07-20T10:28:50;2.72;;;1.30;;
74269;SDS011;62754;48.252;11.654;2023-07-20T10:31:16;3.95;;;1.10;;
74269;SDS011;62754;48.252;11.654;2023-07-20T10:33:43;3.53;;;1.83;;
74269;SDS011;62754;48.252;11.654;2023-07-20T10:36:11;4.18;;;1.30;;
74269;SDS011;62754;48.252;11.654;2023-07-20T10:44:13;2.80;;;1.15;;
74269;SDS011;62754;48.252;11.654;2023-07-20T10:46:47;2.28;;;1.10;;
74269;SDS011;62754;48.252;11.654;2023-07-20T10:49:15;2.95;;;1.10;;
74269;SDS011;62754;48.252;11.654;2023-07-20T10:51:47;2.35;;;1.20;;
74269;SDS011;62754;48.252;11.654;2023-07-20T10:56:43;3.70;;;1.33;;
74269;SDS011;62754;48.252;11.654;2023-07-20T10:59:19;2.70;;;1.20;;
74269;SDS011;62754;48.252;11.654;2023-07-20T11:01:51;6.38;;;1.48;;
74269;SDS011;62754;48.252;11.654;2023-07-20T11:04:37;3.45;;;1.30;;
74269;SDS011;62754;48.252;11.654;2023-07-20T11:07:03;4.15;;;1.27;;
74269;SDS011;62754;48.252;11.654;2023-07-20T11:09:33;2.85;;;1.40;;
74269;SDS011;62754;48.252;11.654;2023-07-20T11:12:09;2.78;;;1.33;;
74269;SDS011;62754;48.252;11.654;2023-07-20T11:14:39;2.85;;;1.40;;
74269;SDS011;62754;48.252;11.654;2023-07-20T11:17:13;3.22;;;1.40;;
74269;SDS011;62754;48.252;11.654;2023-07-20T11:19:41;3.15;;;1.23;;
74269;SDS011;62754;48.252;11.654;2023-07-20T11:22:07;3.50;;;1.35;;
74269;SDS011;62754;48.252;11.654;2023-07-20T11:24:33;3.75;;;1.27;;
74269;SDS011;62754;48.252;11.654;2023-07-20T11:26:59;2.55;;;1.10;;
74269;SDS011;62754;48.252;11.654;2023-07-20T11:29:25;3.88;;;1.33;;
74269;SDS011;62754;48.252;11.654;2023-07-20T11:31:54;3.30;;;1.40;;
74269;SDS011;62754;48.252;11.654;2023-07-20T11:34:20;2.75;;;1.40;;
74269;SDS011;62754;48.252;11.654;2023-07-20T11:36:49;4.03;;;1.40;;
74269;SDS011;62754;48.252;11.654;2023-07-20T11:39:16;4.25;;;1.27;;
74269;SDS011;62754;48.252;11.654;2023-07-20T11:41:46;4.13;;;1.40;;
74269;SDS011;62754;48.252;11.654;2023-07-20T11:44:13;4.00;;;1.48;;
74269;SDS011;62754;48.252;11.654;2023-07-20T11:46:43;3.70;;;1.10;;
74269;SDS011;62754;48.252;11.654;2023-07-20T11:49:09;2.97;;;1.40;;
74269;SDS011;62754;48.252;11.654;2023-07-20T11:51:38;2.08;;;1.23;;
74269;SDS011;62754;48.252;11.654;2023-07-20T11:54:06;3.35;;;1.38;;
74269;SDS011;62754;48.252;11.654;2023-07-20T11:56:35;4.07;;;1.40;;
74269;SDS011;62754;48.252;11.654;2023-07-20T11:59:11;3.58;;;1.38;;
74269;SDS011;62754;48.252;11.654;2023-07-20T12:01:39;3.13;;;1.33;;
74269;SDS011;62754;48.252;11.654;2023-07-20T12:04:06;3.67;;;1.10;;
74269;SDS011;62754;48.252;11.654;2023-07-20T12:08:58;4.03;;;1.10;;
74269;SDS011;62754;48.252;11.654;2023-07-20T12:11:30;5.60;;;1.23;;
74269;SDS011;62754;48.252;11.654;2023-07-20T12:13:57;3.20;;;1.20;;
74269;SDS011;62754;48.252;11.654;2023-07-20T12:16:26;2.30;;;1.25;;
74269;SDS011;62754;48.252;11.654;2023-07-20T12:19:00;2.67;;;1.40;;
74269;SDS011;62754;48.252;11.654;2023-07-20T12:21:30;3.90;;;1.25;;
74269;SDS011;62754;48.252;11.654;2023-07-20T12:23:56;4.15;;;1.08;;
74269;SDS011;62754;48.252;11.654;2023-07-20T12:26:24;3.45;;;1.27;;
74269;SDS011;62754;48.252;11.654;2023-07-20T12:28:54;2.47;;;1.17;;
74269;SDS011;62754;48.252;11.654;2023-07-20T12:33:46;2.92;;;1.20;;
74269;SDS011;62754;48.252;11.654;2023-07-20T12:36:14;3.20;;;1.55;;
74269;SDS011;62754;48.252;11.654;2023-07-20T12:38:40;3.45;;;1.40;;
74269;SDS011;62754;48.252;11.654;2023-07-20T12:41:09;3.28;;;1.13;;
74269;SDS011;62754;48.252;11.654;2023-07-20T12:43:38;4.35;;;1.50;;
74269;SDS011;62754;48.252;11.654;2023-07-20T12:46:06;3.78;;;1.33;;
74269;SDS011;62754;48.252;11.654;2023-07-20T12:48:36;2.45;;;1.10;;
74269;SDS011;62754;48.252;11.654;2023-07-20T12:51:07;2.42;;;1.10;;
74269;SDS011;62754;48.252;11.654;2023-07-20T12:53:33;2.40;;;1.25;;
74269;SDS011;62754;48.252;11.654;2023-07-20T12:55:59;2.72;;;1.40;;
74269;SDS011;62754;48.252;11.654;2023-07-20T12:58:27;3.55;;;1.30;;
74269;SDS011;62754;48.252;11.654;2023-07-20T13:00:53;4.07;;;1.48;;
74269;SDS011;62754;48.252;11.654;2023-07-20T13:03:22;4.20;;;1.23;;
74269;SDS011;62754;48.252;11.654;2023-07-20T13:05:48;2.60;;;1.20;;
74269;SDS011;62754;48.252;11.654;2023-07-20T13:08:14;4.03;;;1.50;;
74269;SDS011;62754;48.252;11.654;2023-07-20T13:10:44;3.20;;;1.30;;
74269;SDS011;62754;48.252;11.654;2023-07-20T13:13:10;3.03;;;1.30;;
74269;SDS011;62754;48.252;11.654;2023-07-20T13:15:42;2.22;;;1.10;;
74269;SDS011;62754;48.252;11.654;2023-07-20T13:18:09;2.72;;;1.13;;
74269;SDS011;62754;48.252;11.654;2023-07-20T13:20:37;5.50;;;1.52;;
74269;SDS011;62754;48.252;11.654;2023-07-20T13:23:04;3.17;;;1.20;;
74269;SDS011;62754;48.252;11.654;2023-07-20T13:25:32;2.70;;;1.15;;
74269;SDS011;62754;48.252;11.654;2023-07-20T13:27:58;3.70;;;1.40;;
74269;SDS011;62754;48.252;11.654;2023-07-20T13:32:52;2.70;;;1.23;;
74269;SDS011;62754;48.252;11.654;2023-07-20T13:35:17;4.32;;;1.55;;
74269;SDS011;62754;48.252;11.654;2023-07-20T13:37:43;3.20;;;1.20;;
74269;SDS011;62754;48.252;11.654;2023-07-20T13:40:09;2.80;;;1.40;;
74269;SDS011;62754;48.252;11.654;2023-07-20T13:42:35;3.65;;;1.20;;
74269;SDS011;62754;48.252;11.654;2023-07-20T13:45:04;3.05;;;1.15;;
74269;SDS011;62754;48.252;11.654;2023-07-20T13:47:30;4.35;;;1.70;;
74269;SDS011;62754;48.252;11.654;2023-07-20T13:49:56;3.97;;;1.15;;
74269;SDS011;62754;48.252;11.654;2023-07-20T13:52:21;4.20;;;1.20;;
74269;SDS011;62754;48.252;11.654;2023-07-20T13:54:49;2.50;;;1.05;;
74269;SDS011;62754;48.252;11.654;2023-07-20T13:57:18;2.58;;;1.13;;
74269;SDS011;62754;48.252;11.654;2023-07-20T13:59:46;4.15;;;1.33;;
74269;SDS011;62754;48.252;11.654;2023-07-20T14:02:13;5.10;;;1.20;;
74269;SDS011;62754;48.252;11.654;2023-07-20T14:04:40;4.55;;;1.35;;
74269;SDS011;62754;48.252;11.654;2023-07-20T14:07:05;2.67;;;1.35;;
74269;SDS011;62754;48.252;11.654;2023-07-20T14:09:36;4.47;;;1.10;;
74269;SDS011;62754;48.252;11.654;2023-07-20T14:12:04;3.03;;;1.10;;
74269;SDS011;62754;48.252;11.654;2023-07-20T14:14:36;3.85;;;1.02;;
74269;SDS011;62754;48.252;11.654;2023-07-20T14:17:04;4.05;;;1.30;;
74269;SDS011;62754;48.252;11.654;2023-07-20T14:19:30;2.30;;;1.30;;
74269;SDS011;62754;48.252;11.654;2023-07-20T14:21:55;2.70;;;1.20;;
74269;SDS011;62754;48.252;11.654;2023-07-20T14:24:23;2.55;;;1.15;;
74269;SDS011;62754;48.252;11.654;2023-07-20T14:26:52;6.15;;;1.35;;
74269;SDS011;62754;48.252;11.654;2023-07-20T14:29:17;4.32;;;1.20;;
74269;SDS011;62754;48.252;11.654;2023-07-20T14:31:46;5.75;;;1.63;;
74269;SDS011;62754;48.252;11.654;2023-07-20T14:34:11;2.90;;;1.20;;
74269;SDS011;62754;48.252;11.654;2023-07-20T14:36:40;2.30;;;1.17;;
74269;SDS011;62754;48.252;11.654;2023-07-20T14:39:06;4.63;;;1.40;;
74269;SDS011;62754;48.252;11.654;2023-07-20T14:41:32;5.05;;;1.13;;
74269;SDS011;62754;48.252;11.654;2023-07-20T14:44:02;3.55;;;1.23;;
74269;SDS011;62754;48.252;11.654;2023-07-20T14:46:28;3.40;;;1.15;;
74269;SDS011;62754;48.252;11.654;2023-07-20T14:48:56;3.10;;;1.30;;
74269;SDS011;62754;48.252;11.654;2023-07-20T14:51:26;3.78;;;1.15;;
74269;SDS011;62754;48.252;11.654;2023-07-20T14:53:54;2.88;;;1.40;;
74269;SDS011;62754;48.252;11.654;2023-07-20T14:56:24;3.55;;;1.17;;
74269;SDS011;62754;48.252;11.654;2023-07-20T14:58:50;8.27;;;1.42;;
74269;SDS011;62754;48.252;11.654;2023-07-20T15:01:18;2.60;;;1.10;;
74269;SDS011;62754;48.252;11.654;2023-07-20T15:03:44;3.15;;;1.10;;
74269;SDS011;62754;48.252;11.654;2023-07-20T15:06:12;3.42;;;1.35;;
74269;SDS011;62754;48.252;11.654;2023-07-20T15:08:38;3.95;;;1.25;;